sensor_id;sensor_type;location;lat;lon;timestamp;P1;durP1;ratioP1;P2;durP2;ratioP2
70102;SDS011;57470;50.034;15.256;2023-07-24T00:02:13;5.90;;;1.20;;
70102;SDS011;57470;50.034;15.256;2023-07-24T00:04:39;5.93;;;1.27;;
70102;SDS011;57470;50.034;15.256;2023-07-24T00:07:04;5.07;;;1.23;;
70102;SDS011;57470;50.034;15.256;2023-07-24T00:09:30;5.10;;;1.33;;
70102;SDS011;57470;50.034;15.256;2023-07-24T00:11:55;4.70;;;1.67;;
70102;SDS011;57470;50.034;15.256;2023-07-24T00:14:21;4.90;;;1.67;;
70102;SDS011;57470;50.034;15.256;2023-07-24T00:16:46;5.83;;;1.50;;
70102;SDS011;57470;50.034;15.256;2023-07-24T00:19:11;5.00;;;1.60;;
70102;SDS011;57470;50.034;15.256;2023-07-24T00:21:37;4.43;;;1.43;;
70102;SDS011;57470;50.034;15.256;2023-07-24T00:24:02;6.07;;;1.60;;
70102;SDS011;57470;50.034;15.256;2023-07-24T00:26:28;7.40;;;1.17;;
70102;SDS011;57470;50.034;15.256;2023-07-24T00:28:53;5.13;;;1.50;;
70102;SDS011;57470;50.034;15.256;2023-07-24T00:31:19;5.70;;;2.05;;
70102;SDS011;57470;50.034;15.256;2023-07-24T00:33:44;4.53;;;1.50;;
70102;SDS011;57470;50.034;15.256;2023-07-24T00:36:09;6.47;;;1.83;;
70102;SDS011;57470;50.034;15.256;2023-07-24T00:38:35;8.17;;;1.00;;
70102;SDS011;57470;50.034;15.256;2023-07-24T00:41:00;5.37;;;1.40;;
70102;SDS011;57470;50.034;15.256;2023-07-24T00:43:25;4.97;;;1.70;;
70102;SDS011;57470;50.034;15.256;2023-07-24T00:45:51;6.20;;;1.58;;
70102;SDS011;57470;50.034;15.256;2023-07-24T00:48:17;5.30;;;1.13;;
70102;SDS011;57470;50.034;15.256;2023-07-24T00:50:42;5.32;;;1.63;;
70102;SDS011;57470;50.034;15.256;2023-07-24T00:53:10;4.47;;;1.00;;
70102;SDS011;57470;50.034;15.256;2023-07-24T00:55:37;10.20;;;1.15;;
70102;SDS011;57470;50.034;15.256;2023-07-24T00:58:03;5.55;;;1.45;;
70102;SDS011;57470;50.034;15.256;2023-07-24T01:00:28;5.33;;;1.70;;
70102;SDS011;57470;50.034;15.256;2023-07-24T01:02:54;5.35;;;1.42;;
70102;SDS011;57470;50.034;15.256;2023-07-24T01:05:21;4.60;;;1.23;;
70102;SDS011;57470;50.034;15.256;2023-07-24T01:07:50;5.17;;;1.47;;
70102;SDS011;57470;50.034;15.256;2023-07-24T01:10:15;5.18;;;1.40;;
70102;SDS011;57470;50.034;15.256;2023-07-24T01:15:15;5.38;;;1.40;;
70102;SDS011;57470;50.034;15.256;2023-07-24T01:17:46;4.63;;;1.20;;
70102;SDS011;57470;50.034;15.256;2023-07-24T01:20:15;7.15;;;1.52;;
70102;SDS011;57470;50.034;15.256;2023-07-24T01:26:02;4.40;;;0.93;;
70102;SDS011;57470;50.034;15.256;2023-07-24T01:28:28;4.93;;;1.10;;
70102;SDS011;57470;50.034;15.256;2023-07-24T01:30:54;8.65;;;1.77;;
70102;SDS011;57470;50.034;15.256;2023-07-24T01:33:20;7.53;;;1.43;;
70102;SDS011;57470;50.034;15.256;2023-07-24T01:36:08;5.18;;;1.25;;
70102;SDS011;57470;50.034;15.256;2023-07-24T01:38:33;6.35;;;1.00;;
70102;SDS011;57470;50.034;15.256;2023-07-24T01:41:00;5.13;;;1.40;;
70102;SDS011;57470;50.034;15.256;2023-07-24T01:43:26;5.70;;;1.67;;
70102;SDS011;57470;50.034;15.256;2023-07-24T01:45:52;3.83;;;0.90;;
70102;SDS011;57470;50.034;15.256;2023-07-24T01:48:18;4.97;;;1.30;;
70102;SDS011;57470;50.034;15.256;2023-07-24T01:50:43;5.60;;;1.90;;
70102;SDS011;57470;50.034;15.256;2023-07-24T01:53:09;4.57;;;1.53;;
70102;SDS011;57470;50.034;15.256;2023-07-24T01:55:34;5.13;;;1.60;;
70102;SDS011;57470;50.034;15.256;2023-07-24T01:58:00;7.82;;;1.88;;
70102;SDS011;57470;50.034;15.256;2023-07-24T02:00:25;4.37;;;1.50;;
70102;SDS011;57470;50.034;15.256;2023-07-24T02:02:51;4.50;;;1.10;;
70102;SDS011;57470;50.034;15.256;2023-07-24T02:05:16;5.83;;;1.70;;
70102;SDS011;57470;50.034;15.256;2023-07-24T02:07:41;5.10;;;1.57;;
70102;SDS011;57470;50.034;15.256;2023-07-24T02:10:07;5.93;;;2.13;;
70102;SDS011;57470;50.034;15.256;2023-07-24T02:12:33;5.47;;;1.67;;
70102;SDS011;57470;50.034;15.256;2023-07-24T02:14:58;5.00;;;1.63;;
70102;SDS011;57470;50.034;15.256;2023-07-24T02:17:24;5.67;;;1.90;;
70102;SDS011;57470;50.034;15.256;2023-07-24T02:19:52;5.18;;;1.13;;
70102;SDS011;57470;50.034;15.256;2023-07-24T02:22:18;5.75;;;1.55;;
70102;SDS011;57470;50.034;15.256;2023-07-24T02:24:44;4.77;;;1.83;;
70102;SDS011;57470;50.034;15.256;2023-07-24T02:27:12;5.37;;;1.20;;
70102;SDS011;57470;50.034;15.256;2023-07-24T02:29:39;3.80;;;1.40;;
70102;SDS011;57470;50.034;15.256;2023-07-24T02:32:04;5.40;;;1.87;;
70102;SDS011;57470;50.034;15.256;2023-07-24T02:34:30;5.10;;;1.45;;
70102;SDS011;57470;50.034;15.256;2023-07-24T02:36:55;4.87;;;1.13;;
70102;SDS011;57470;50.034;15.256;2023-07-24T02:39:21;6.67;;;1.60;;
70102;SDS011;57470;50.034;15.256;2023-07-24T02:41:49;4.97;;;1.37;;
70102;SDS011;57470;50.034;15.256;2023-07-24T02:44:15;6.32;;;2.03;;
70102;SDS011;57470;50.034;15.256;2023-07-24T02:46:40;4.47;;;1.20;;
70102;SDS011;57470;50.034;15.256;2023-07-24T02:49:06;6.07;;;1.20;;
70102;SDS011;57470;50.034;15.256;2023-07-24T02:51:32;5.80;;;1.42;;
70102;SDS011;57470;50.034;15.256;2023-07-24T02:53:57;5.17;;;1.27;;
70102;SDS011;57470;50.034;15.256;2023-07-24T02:56:22;6.25;;;1.77;;
70102;SDS011;57470;50.034;15.256;2023-07-24T02:58:48;7.77;;;2.27;;
70102;SDS011;57470;50.034;15.256;2023-07-24T03:01:13;5.40;;;1.40;;
70102;SDS011;57470;50.034;15.256;2023-07-24T03:03:42;6.30;;;1.23;;
70102;SDS011;57470;50.034;15.256;2023-07-24T03:06:08;6.53;;;1.97;;
70102;SDS011;57470;50.034;15.256;2023-07-24T03:08:33;7.28;;;1.77;;
70102;SDS011;57470;50.034;15.256;2023-07-24T03:10:59;4.83;;;1.47;;
70102;SDS011;57470;50.034;15.256;2023-07-24T03:13:25;5.90;;;1.45;;
70102;SDS011;57470;50.034;15.256;2023-07-24T03:15:54;5.97;;;1.60;;
70102;SDS011;57470;50.034;15.256;2023-07-24T03:18:21;6.85;;;1.98;;
70102;SDS011;57470;50.034;15.256;2023-07-24T03:20:46;6.50;;;2.10;;
70102;SDS011;57470;50.034;15.256;2023-07-24T03:23:12;7.32;;;2.08;;
70102;SDS011;57470;50.034;15.256;2023-07-24T03:25:37;5.93;;;2.03;;
70102;SDS011;57470;50.034;15.256;2023-07-24T03:28:03;6.70;;;1.73;;
70102;SDS011;57470;50.034;15.256;2023-07-24T03:30:28;9.90;;;1.77;;
70102;SDS011;57470;50.034;15.256;2023-07-24T03:32:54;8.57;;;1.70;;
70102;SDS011;57470;50.034;15.256;2023-07-24T03:35:19;5.87;;;1.67;;
70102;SDS011;57470;50.034;15.256;2023-07-24T03:37:45;5.82;;;1.60;;
70102;SDS011;57470;50.034;15.256;2023-07-24T03:40:10;5.50;;;1.70;;
70102;SDS011;57470;50.034;15.256;2023-07-24T03:42:36;7.90;;;1.55;;
70102;SDS011;57470;50.034;15.256;2023-07-24T03:45:02;5.63;;;1.43;;
70102;SDS011;57470;50.034;15.256;2023-07-24T03:47:27;4.80;;;1.87;;
70102;SDS011;57470;50.034;15.256;2023-07-24T03:49:53;7.47;;;1.77;;
70102;SDS011;57470;50.034;15.256;2023-07-24T03:52:18;5.85;;;1.95;;
70102;SDS011;57470;50.034;15.256;2023-07-24T03:54:44;4.77;;;1.50;;
70102;SDS011;57470;50.034;15.256;2023-07-24T03:57:09;5.80;;;2.10;;
70102;SDS011;57470;50.034;15.256;2023-07-24T03:59:35;7.38;;;1.90;;
70102;SDS011;57470;50.034;15.256;2023-07-24T04:02:01;5.20;;;1.50;;
70102;SDS011;57470;50.034;15.256;2023-07-24T04:04:26;5.78;;;1.80;;
70102;SDS011;57470;50.034;15.256;2023-07-24T04:06:52;6.33;;;1.47;;
70102;SDS011;57470;50.034;15.256;2023-07-24T04:09:17;6.13;;;2.10;;
70102;SDS011;57470;50.034;15.256;2023-07-24T04:11:43;5.60;;;1.23;;
70102;SDS011;57470;50.034;15.256;2023-07-24T04:14:09;4.43;;;1.43;;
70102;SDS011;57470;50.034;15.256;2023-07-24T04:16:35;4.47;;;1.02;;
70102;SDS011;57470;50.034;15.256;2023-07-24T04:19:00;5.13;;;1.63;;
70102;SDS011;57470;50.034;15.256;2023-07-24T04:21:26;4.40;;;1.23;;
70102;SDS011;57470;50.034;15.256;2023-07-24T04:23:51;5.57;;;1.77;;
70102;SDS011;57470;50.034;15.256;2023-07-24T04:26:17;6.07;;;1.63;;
70102;SDS011;57470;50.034;15.256;2023-07-24T04:28:42;5.97;;;2.07;;
70102;SDS011;57470;50.034;15.256;2023-07-24T04:31:07;6.93;;;2.15;;
70102;SDS011;57470;50.034;15.256;2023-07-24T04:33:33;4.37;;;1.33;;
70102;SDS011;57470;50.034;15.256;2023-07-24T04:35:58;6.03;;;2.00;;
70102;SDS011;57470;50.034;15.256;2023-07-24T04:38:24;6.17;;;1.90;;
70102;SDS011;57470;50.034;15.256;2023-07-24T04:40:50;8.02;;;2.05;;
70102;SDS011;57470;50.034;15.256;2023-07-24T04:43:15;5.87;;;1.87;;
70102;SDS011;57470;50.034;15.256;2023-07-24T04:45:41;6.87;;;2.03;;
70102;SDS011;57470;50.034;15.256;2023-07-24T04:48:06;6.75;;;2.13;;
70102;SDS011;57470;50.034;15.256;2023-07-24T04:50:31;6.43;;;2.27;;
70102;SDS011;57470;50.034;15.256;2023-07-24T04:52:57;8.27;;;2.13;;
70102;SDS011;57470;50.034;15.256;2023-07-24T04:55:23;5.35;;;1.83;;
70102;SDS011;57470;50.034;15.256;2023-07-24T04:57:48;6.40;;;2.53;;
70102;SDS011;57470;50.034;15.256;2023-07-24T05:00:14;6.20;;;2.00;;
70102;SDS011;57470;50.034;15.256;2023-07-24T05:02:39;7.15;;;2.15;;
70102;SDS011;57470;50.034;15.256;2023-07-24T05:05:05;6.77;;;2.10;;
70102;SDS011;57470;50.034;15.256;2023-07-24T05:07:31;4.88;;;1.50;;
70102;SDS011;57470;50.034;15.256;2023-07-24T05:09:56;7.73;;;1.37;;
70102;SDS011;57470;50.034;15.256;2023-07-24T05:12:22;5.87;;;1.50;;
70102;SDS011;57470;50.034;15.256;2023-07-24T05:14:47;5.23;;;1.37;;
70102;SDS011;57470;50.034;15.256;2023-07-24T05:17:12;5.55;;;1.55;;
70102;SDS011;57470;50.034;15.256;2023-07-24T05:19:38;5.77;;;1.93;;
70102;SDS011;57470;50.034;15.256;2023-07-24T05:22:03;10.27;;;1.97;;
70102;SDS011;57470;50.034;15.256;2023-07-24T05:24:29;6.37;;;2.00;;
70102;SDS011;57470;50.034;15.256;2023-07-24T05:26:54;6.03;;;2.05;;
70102;SDS011;57470;50.034;15.256;2023-07-24T05:29:20;8.93;;;2.20;;
70102;SDS011;57470;50.034;15.256;2023-07-24T05:31:45;7.20;;;2.20;;
70102;SDS011;57470;50.034;15.256;2023-07-24T05:34:11;15.30;;;1.97;;
70102;SDS011;57470;50.034;15.256;2023-07-24T05:36:36;5.60;;;2.27;;
70102;SDS011;57470;50.034;15.256;2023-07-24T05:39:02;6.73;;;2.20;;
70102;SDS011;57470;50.034;15.256;2023-07-24T05:41:27;6.50;;;1.88;;
70102;SDS011;57470;50.034;15.256;2023-07-24T05:43:53;5.43;;;1.97;;
70102;SDS011;57470;50.034;15.256;2023-07-24T05:46:18;8.07;;;2.17;;
70102;SDS011;57470;50.034;15.256;2023-07-24T05:48:44;6.63;;;2.07;;
70102;SDS011;57470;50.034;15.256;2023-07-24T05:51:09;9.50;;;1.90;;
70102;SDS011;57470;50.034;15.256;2023-07-24T05:53:34;7.60;;;2.57;;
70102;SDS011;57470;50.034;15.256;2023-07-24T05:56:00;6.33;;;1.93;;
70102;SDS011;57470;50.034;15.256;2023-07-24T05:58:27;8.55;;;2.35;;
70102;SDS011;57470;50.034;15.256;2023-07-24T06:00:52;6.67;;;1.97;;
70102;SDS011;57470;50.034;15.256;2023-07-24T06:03:18;6.43;;;2.10;;
70102;SDS011;57470;50.034;15.256;2023-07-24T06:05:43;7.65;;;2.35;;
70102;SDS011;57470;50.034;15.256;2023-07-24T06:08:09;8.43;;;2.30;;
70102;SDS011;57470;50.034;15.256;2023-07-24T06:10:36;6.57;;;2.00;;
70102;SDS011;57470;50.034;15.256;2023-07-24T06:13:01;8.03;;;2.30;;
70102;SDS011;57470;50.034;15.256;2023-07-24T06:15:27;6.72;;;2.10;;
70102;SDS011;57470;50.034;15.256;2023-07-24T06:17:52;8.63;;;1.97;;
70102;SDS011;57470;50.034;15.256;2023-07-24T06:20:18;7.97;;;2.87;;
70102;SDS011;57470;50.034;15.256;2023-07-24T06:22:43;7.93;;;2.27;;
70102;SDS011;57470;50.034;15.256;2023-07-24T06:25:08;6.53;;;2.50;;
70102;SDS011;57470;50.034;15.256;2023-07-24T06:27:34;5.68;;;1.90;;
70102;SDS011;57470;50.034;15.256;2023-07-24T06:29:59;6.83;;;2.37;;
70102;SDS011;57470;50.034;15.256;2023-07-24T06:32:25;5.57;;;2.57;;
70102;SDS011;57470;50.034;15.256;2023-07-24T06:34:50;6.90;;;1.93;;
70102;SDS011;57470;50.034;15.256;2023-07-24T06:37:15;9.43;;;2.35;;
70102;SDS011;57470;50.034;15.256;2023-07-24T06:39:41;8.27;;;2.60;;
70102;SDS011;57470;50.034;15.256;2023-07-24T06:42:07;6.93;;;2.73;;
70102;SDS011;57470;50.034;15.256;2023-07-24T06:44:32;7.65;;;2.45;;
70102;SDS011;57470;50.034;15.256;2023-07-24T06:46:58;7.00;;;2.20;;
70102;SDS011;57470;50.034;15.256;2023-07-24T06:49:23;7.87;;;2.30;;
70102;SDS011;57470;50.034;15.256;2023-07-24T06:51:48;6.67;;;2.07;;
70102;SDS011;57470;50.034;15.256;2023-07-24T06:54:14;7.67;;;2.90;;
70102;SDS011;57470;50.034;15.256;2023-07-24T06:56:39;7.23;;;2.50;;
70102;SDS011;57470;50.034;15.256;2023-07-24T06:59:05;7.23;;;2.50;;
70102;SDS011;57470;50.034;15.256;2023-07-24T07:01:30;8.50;;;2.33;;
70102;SDS011;57470;50.034;15.256;2023-07-24T07:03:55;9.43;;;2.55;;
70102;SDS011;57470;50.034;15.256;2023-07-24T07:06:21;7.23;;;2.40;;
70102;SDS011;57470;50.034;15.256;2023-07-24T07:08:46;6.40;;;2.00;;
70102;SDS011;57470;50.034;15.256;2023-07-24T07:11:12;7.17;;;2.70;;
70102;SDS011;57470;50.034;15.256;2023-07-24T07:13:37;9.70;;;3.20;;
70102;SDS011;57470;50.034;15.256;2023-07-24T07:16:02;7.10;;;2.33;;
70102;SDS011;57470;50.034;15.256;2023-07-24T07:18:28;7.50;;;2.93;;
70102;SDS011;57470;50.034;15.256;2023-07-24T07:20:53;8.67;;;2.70;;
70102;SDS011;57470;50.034;15.256;2023-07-24T07:23:19;6.80;;;2.45;;
70102;SDS011;57470;50.034;15.256;2023-07-24T07:25:45;8.20;;;2.35;;
70102;SDS011;57470;50.034;15.256;2023-07-24T07:28:11;7.87;;;2.47;;
70102;SDS011;57470;50.034;15.256;2023-07-24T07:30:37;8.05;;;2.55;;
70102;SDS011;57470;50.034;15.256;2023-07-24T07:33:03;7.03;;;2.50;;
70102;SDS011;57470;50.034;15.256;2023-07-24T07:35:31;7.25;;;2.75;;
70102;SDS011;57470;50.034;15.256;2023-07-24T07:37:57;7.57;;;2.92;;
70102;SDS011;57470;50.034;15.256;2023-07-24T07:40:22;8.70;;;3.13;;
70102;SDS011;57470;50.034;15.256;2023-07-24T07:42:48;9.77;;;2.50;;
70102;SDS011;57470;50.034;15.256;2023-07-24T07:45:14;6.80;;;2.58;;
70102;SDS011;57470;50.034;15.256;2023-07-24T07:47:39;6.97;;;2.43;;
70102;SDS011;57470;50.034;15.256;2023-07-24T07:50:05;8.02;;;2.47;;
70102;SDS011;57470;50.034;15.256;2023-07-24T07:52:31;9.02;;;2.75;;
70102;SDS011;57470;50.034;15.256;2023-07-24T07:54:56;7.23;;;3.03;;
70102;SDS011;57470;50.034;15.256;2023-07-24T07:57:22;7.90;;;2.33;;
70102;SDS011;57470;50.034;15.256;2023-07-24T07:59:47;6.93;;;2.30;;
70102;SDS011;57470;50.034;15.256;2023-07-24T08:02:13;7.25;;;2.33;;
70102;SDS011;57470;50.034;15.256;2023-07-24T08:04:38;7.70;;;2.03;;
70102;SDS011;57470;50.034;15.256;2023-07-24T08:07:04;9.90;;;3.00;;
70102;SDS011;57470;50.034;15.256;2023-07-24T08:09:29;10.57;;;2.93;;
70102;SDS011;57470;50.034;15.256;2023-07-24T08:11:55;7.97;;;2.60;;
70102;SDS011;57470;50.034;15.256;2023-07-24T08:14:20;6.67;;;2.37;;
70102;SDS011;57470;50.034;15.256;2023-07-24T08:16:48;7.33;;;2.90;;
70102;SDS011;57470;50.034;15.256;2023-07-24T08:19:14;7.28;;;3.20;;
70102;SDS011;57470;50.034;15.256;2023-07-24T08:21:40;6.93;;;1.97;;
70102;SDS011;57470;50.034;15.256;2023-07-24T08:24:05;7.43;;;2.20;;
70102;SDS011;57470;50.034;15.256;2023-07-24T08:26:31;10.70;;;3.53;;
70102;SDS011;57470;50.034;15.256;2023-07-24T08:28:57;6.68;;;2.33;;
70102;SDS011;57470;50.034;15.256;2023-07-24T08:31:22;7.13;;;2.13;;
70102;SDS011;57470;50.034;15.256;2023-07-24T08:33:47;6.43;;;2.43;;
70102;SDS011;57470;50.034;15.256;2023-07-24T08:36:13;8.10;;;2.70;;
70102;SDS011;57470;50.034;15.256;2023-07-24T08:38:38;7.43;;;2.30;;
70102;SDS011;57470;50.034;15.256;2023-07-24T08:41:12;6.43;;;2.80;;
70102;SDS011;57470;50.034;15.256;2023-07-24T08:43:40;7.55;;;2.53;;
70102;SDS011;57470;50.034;15.256;2023-07-24T08:46:07;7.05;;;2.72;;
70102;SDS011;57470;50.034;15.256;2023-07-24T08:48:33;7.80;;;3.00;;
70102;SDS011;57470;50.034;15.256;2023-07-24T08:51:04;8.23;;;2.90;;
70102;SDS011;57470;50.034;15.256;2023-07-24T08:53:32;8.85;;;2.70;;
70102;SDS011;57470;50.034;15.256;2023-07-24T08:56:00;9.07;;;3.08;;
70102;SDS011;57470;50.034;15.256;2023-07-24T08:58:30;8.45;;;2.88;;
70102;SDS011;57470;50.034;15.256;2023-07-24T09:00:56;7.87;;;2.50;;
70102;SDS011;57470;50.034;15.256;2023-07-24T09:03:22;7.65;;;2.65;;
70102;SDS011;57470;50.034;15.256;2023-07-24T09:05:47;6.73;;;2.33;;
70102;SDS011;57470;50.034;15.256;2023-07-24T09:08:13;10.50;;;3.23;;
70102;SDS011;57470;50.034;15.256;2023-07-24T09:10:38;7.07;;;2.53;;
70102;SDS011;57470;50.034;15.256;2023-07-24T09:13:04;7.83;;;3.23;;
70102;SDS011;57470;50.034;15.256;2023-07-24T09:15:42;9.00;;;3.20;;
70102;SDS011;57470;50.034;15.256;2023-07-24T09:18:08;8.13;;;3.08;;
70102;SDS011;57470;50.034;15.256;2023-07-24T09:20:41;8.50;;;3.13;;
70102;SDS011;57470;50.034;15.256;2023-07-24T09:23:07;8.68;;;3.00;;
70102;SDS011;57470;50.034;15.256;2023-07-24T09:25:34;8.68;;;3.22;;
70102;SDS011;57470;50.034;15.256;2023-07-24T09:28:00;7.80;;;2.20;;
70102;SDS011;57470;50.034;15.256;2023-07-24T09:30:33;10.90;;;3.53;;
70102;SDS011;57470;50.034;15.256;2023-07-24T09:32:59;8.07;;;3.03;;
70102;SDS011;57470;50.034;15.256;2023-07-24T09:35:24;7.60;;;2.50;;
70102;SDS011;57470;50.034;15.256;2023-07-24T09:38:06;8.53;;;3.17;;
70102;SDS011;57470;50.034;15.256;2023-07-24T09:40:40;8.73;;;2.88;;
70102;SDS011;57470;50.034;15.256;2023-07-24T09:43:28;10.48;;;3.50;;
70102;SDS011;57470;50.034;15.256;2023-07-24T09:45:55;9.52;;;3.75;;
70102;SDS011;57470;50.034;15.256;2023-07-24T09:48:21;7.68;;;2.72;;
70102;SDS011;57470;50.034;15.256;2023-07-24T09:50:48;9.10;;;3.50;;
70102;SDS011;57470;50.034;15.256;2023-07-24T09:56:18;7.45;;;3.10;;
70102;SDS011;57470;50.034;15.256;2023-07-24T09:58:45;8.25;;;3.05;;
70102;SDS011;57470;50.034;15.256;2023-07-24T10:01:14;8.02;;;3.22;;
70102;SDS011;57470;50.034;15.256;2023-07-24T10:03:43;8.60;;;3.43;;
70102;SDS011;57470;50.034;15.256;2023-07-24T10:06:11;8.52;;;3.60;;
70102;SDS011;57470;50.034;15.256;2023-07-24T10:08:40;9.25;;;3.03;;
70102;SDS011;57470;50.034;15.256;2023-07-24T10:11:06;9.20;;;3.45;;
70102;SDS011;57470;50.034;15.256;2023-07-24T10:13:33;8.88;;;3.25;;
70102;SDS011;57470;50.034;15.256;2023-07-24T10:16:01;7.73;;;3.30;;
70102;SDS011;57470;50.034;15.256;2023-07-24T10:18:30;7.78;;;3.35;;
70102;SDS011;57470;50.034;15.256;2023-07-24T10:21:05;8.20;;;3.83;;
70102;SDS011;57470;50.034;15.256;2023-07-24T10:23:35;9.40;;;3.05;;
70102;SDS011;57470;50.034;15.256;2023-07-24T10:26:02;8.40;;;3.47;;
70102;SDS011;57470;50.034;15.256;2023-07-24T10:28:30;7.63;;;3.60;;
70102;SDS011;57470;50.034;15.256;2023-07-24T10:30:57;7.25;;;2.47;;
70102;SDS011;57470;50.034;15.256;2023-07-24T10:33:22;9.30;;;3.93;;
70102;SDS011;57470;50.034;15.256;2023-07-24T10:35:49;7.87;;;2.70;;
70102;SDS011;57470;50.034;15.256;2023-07-24T10:38:18;8.23;;;2.90;;
70102;SDS011;57470;50.034;15.256;2023-07-24T10:40:44;9.07;;;3.43;;
70102;SDS011;57470;50.034;15.256;2023-07-24T10:43:12;8.25;;;3.55;;
70102;SDS011;57470;50.034;15.256;2023-07-24T10:48:15;9.25;;;3.50;;
70102;SDS011;57470;50.034;15.256;2023-07-24T10:50:42;7.53;;;3.50;;
70102;SDS011;57470;50.034;15.256;2023-07-24T10:53:09;8.30;;;3.10;;
70102;SDS011;57470;50.034;15.256;2023-07-24T10:55:36;8.55;;;3.28;;
70102;SDS011;57470;50.034;15.256;2023-07-24T10:58:01;9.10;;;3.83;;
70102;SDS011;57470;50.034;15.256;2023-07-24T11:00:27;9.17;;;3.37;;
70102;SDS011;57470;50.034;15.256;2023-07-24T11:02:53;10.17;;;4.33;;
70102;SDS011;57470;50.034;15.256;2023-07-24T11:05:20;8.07;;;3.47;;
70102;SDS011;57470;50.034;15.256;2023-07-24T11:07:49;10.15;;;4.60;;
70102;SDS011;57470;50.034;15.256;2023-07-24T11:10:18;9.13;;;3.30;;
70102;SDS011;57470;50.034;15.256;2023-07-24T11:12:47;9.57;;;3.93;;
70102;SDS011;57470;50.034;15.256;2023-07-24T11:15:15;8.27;;;2.70;;
70102;SDS011;57470;50.034;15.256;2023-07-24T11:17:41;9.02;;;3.83;;
70102;SDS011;57470;50.034;15.256;2023-07-24T11:20:11;8.10;;;3.00;;
70102;SDS011;57470;50.034;15.256;2023-07-24T11:22:38;8.00;;;2.88;;
70102;SDS011;57470;50.034;15.256;2023-07-24T11:25:05;8.75;;;2.97;;
70102;SDS011;57470;50.034;15.256;2023-07-24T11:27:31;10.20;;;2.90;;
70102;SDS011;57470;50.034;15.256;2023-07-24T11:29:57;8.40;;;3.47;;
70102;SDS011;57470;50.034;15.256;2023-07-24T11:32:22;8.50;;;3.13;;
70102;SDS011;57470;50.034;15.256;2023-07-24T11:34:48;9.50;;;3.42;;
70102;SDS011;57470;50.034;15.256;2023-07-24T11:37:14;8.70;;;3.43;;
70102;SDS011;57470;50.034;15.256;2023-07-24T11:39:40;8.63;;;3.30;;
70102;SDS011;57470;50.034;15.256;2023-07-24T11:42:06;9.18;;;3.38;;
70102;SDS011;57470;50.034;15.256;2023-07-24T11:44:32;7.87;;;3.07;;
70102;SDS011;57470;50.034;15.256;2023-07-24T11:47:01;9.00;;;3.73;;
70102;SDS011;57470;50.034;15.256;2023-07-24T11:49:30;8.27;;;2.73;;
70102;SDS011;57470;50.034;15.256;2023-07-24T11:52:03;8.90;;;3.38;;
70102;SDS011;57470;50.034;15.256;2023-07-24T11:54:33;9.05;;;3.45;;
70102;SDS011;57470;50.034;15.256;2023-07-24T11:56:59;9.48;;;3.92;;
70102;SDS011;57470;50.034;15.256;2023-07-24T11:59:25;9.17;;;3.40;;
70102;SDS011;57470;50.034;15.256;2023-07-24T12:01:51;8.40;;;3.60;;
70102;SDS011;57470;50.034;15.256;2023-07-24T12:04:16;8.20;;;2.47;;
70102;SDS011;57470;50.034;15.256;2023-07-24T12:06:42;10.10;;;3.45;;
70102;SDS011;57470;50.034;15.256;2023-07-24T12:09:08;9.03;;;3.80;;
70102;SDS011;57470;50.034;15.256;2023-07-24T12:11:44;7.22;;;3.22;;
70102;SDS011;57470;50.034;15.256;2023-07-24T12:14:11;10.23;;;3.85;;
70102;SDS011;57470;50.034;15.256;2023-07-24T12:16:36;8.23;;;3.50;;
70102;SDS011;57470;50.034;15.256;2023-07-24T12:19:02;7.03;;;3.00;;
70102;SDS011;57470;50.034;15.256;2023-07-24T12:21:27;9.30;;;3.53;;
70102;SDS011;57470;50.034;15.256;2023-07-24T12:23:52;9.90;;;3.50;;
70102;SDS011;57470;50.034;15.256;2023-07-24T12:26:18;12.53;;;6.53;;
70102;SDS011;57470;50.034;15.256;2023-07-24T12:28:43;9.13;;;3.57;;
70102;SDS011;57470;50.034;15.256;2023-07-24T12:31:09;9.30;;;3.10;;
70102;SDS011;57470;50.034;15.256;2023-07-24T12:33:34;9.33;;;3.37;;
70102;SDS011;57470;50.034;15.256;2023-07-24T12:35:59;9.18;;;3.28;;
70102;SDS011;57470;50.034;15.256;2023-07-24T12:38:25;13.57;;;3.33;;
70102;SDS011;57470;50.034;15.256;2023-07-24T12:40:50;12.60;;;3.50;;
70102;SDS011;57470;50.034;15.256;2023-07-24T12:43:15;9.50;;;2.93;;
70102;SDS011;57470;50.034;15.256;2023-07-24T12:45:41;8.60;;;3.50;;
70102;SDS011;57470;50.034;15.256;2023-07-24T12:48:06;9.40;;;3.20;;
70102;SDS011;57470;50.034;15.256;2023-07-24T12:50:32;8.13;;;3.17;;
70102;SDS011;57470;50.034;15.256;2023-07-24T12:52:58;8.18;;;3.28;;
70102;SDS011;57470;50.034;15.256;2023-07-24T12:55:23;11.23;;;3.53;;
70102;SDS011;57470;50.034;15.256;2023-07-24T12:57:49;9.20;;;3.53;;
70102;SDS011;57470;50.034;15.256;2023-07-24T13:00:14;10.07;;;3.00;;
70102;SDS011;57470;50.034;15.256;2023-07-24T13:02:40;7.80;;;3.38;;
70102;SDS011;57470;50.034;15.256;2023-07-24T13:05:05;15.20;;;2.80;;
70102;SDS011;57470;50.034;15.256;2023-07-24T13:07:31;7.60;;;3.13;;
70102;SDS011;57470;50.034;15.256;2023-07-24T13:09:56;10.40;;;3.53;;
70102;SDS011;57470;50.034;15.256;2023-07-24T13:12:21;8.73;;;3.43;;
70102;SDS011;57470;50.034;15.256;2023-07-24T13:14:47;9.07;;;3.03;;
70102;SDS011;57470;50.034;15.256;2023-07-24T13:17:12;8.77;;;3.80;;
70102;SDS011;57470;50.034;15.256;2023-07-24T13:19:37;7.80;;;3.23;;
70102;SDS011;57470;50.034;15.256;2023-07-24T13:22:03;8.50;;;3.50;;
70102;SDS011;57470;50.034;15.256;2023-07-24T13:24:29;8.90;;;3.75;;
70102;SDS011;57470;50.034;15.256;2023-07-24T13:26:54;7.60;;;3.20;;
70102;SDS011;57470;50.034;15.256;2023-07-24T13:29:19;10.33;;;3.90;;
70102;SDS011;57470;50.034;15.256;2023-07-24T13:31:45;11.03;;;4.33;;
70102;SDS011;57470;50.034;15.256;2023-07-24T13:34:10;8.40;;;3.70;;
70102;SDS011;57470;50.034;15.256;2023-07-24T13:36:36;8.80;;;3.90;;
70102;SDS011;57470;50.034;15.256;2023-07-24T13:39:01;12.50;;;3.40;;
70102;SDS011;57470;50.034;15.256;2023-07-24T13:41:27;10.38;;;3.03;;
70102;SDS011;57470;50.034;15.256;2023-07-24T13:43:52;7.50;;;3.40;;
70102;SDS011;57470;50.034;15.256;2023-07-24T13:46:18;10.60;;;3.57;;
70102;SDS011;57470;50.034;15.256;2023-07-24T13:48:43;10.05;;;4.35;;
70102;SDS011;57470;50.034;15.256;2023-07-24T13:51:09;8.93;;;4.20;;
70102;SDS011;57470;50.034;15.256;2023-07-24T13:53:34;9.00;;;3.50;;
70102;SDS011;57470;50.034;15.256;2023-07-24T13:56:00;10.37;;;3.53;;
70102;SDS011;57470;50.034;15.256;2023-07-24T13:58:25;7.73;;;3.57;;
70102;SDS011;57470;50.034;15.256;2023-07-24T14:00:50;10.90;;;3.43;;
70102;SDS011;57470;50.034;15.256;2023-07-24T14:03:16;8.80;;;3.90;;
70102;SDS011;57470;50.034;15.256;2023-07-24T14:05:41;8.83;;;3.27;;
70102;SDS011;57470;50.034;15.256;2023-07-24T14:08:07;9.83;;;3.37;;
70102;SDS011;57470;50.034;15.256;2023-07-24T14:10:33;10.60;;;3.83;;
70102;SDS011;57470;50.034;15.256;2023-07-24T14:12:58;7.53;;;3.43;;
70102;SDS011;57470;50.034;15.256;2023-07-24T14:15:24;10.73;;;4.37;;
70102;SDS011;57470;50.034;15.256;2023-07-24T14:17:49;8.52;;;3.47;;
70102;SDS011;57470;50.034;15.256;2023-07-24T14:20:14;7.50;;;3.07;;
70102;SDS011;57470;50.034;15.256;2023-07-24T14:22:40;11.13;;;3.63;;
70102;SDS011;57470;50.034;15.256;2023-07-24T14:25:05;9.17;;;3.67;;
70102;SDS011;57470;50.034;15.256;2023-07-24T14:27:31;8.50;;;3.60;;
70102;SDS011;57470;50.034;15.256;2023-07-24T14:29:57;8.23;;;3.20;;
70102;SDS011;57470;50.034;15.256;2023-07-24T14:32:22;8.20;;;3.47;;
70102;SDS011;57470;50.034;15.256;2023-07-24T14:34:50;8.97;;;3.53;;
70102;SDS011;57470;50.034;15.256;2023-07-24T14:37:17;7.32;;;2.60;;
70102;SDS011;57470;50.034;15.256;2023-07-24T14:39:43;8.15;;;2.83;;